createdAt,value
2023-03-18T00:00:17.996Z,67.82
2023-03-18T00:05:42.406Z,68.15
2023-03-18T00:10:45.659Z,68.29
2023-03-18T00:15:52.044Z,68.93
2023-03-18T00:20:55.312Z,69.17
2023-03-18T00:26:00.978Z,69.11
2023-03-18T00:31:08.873Z,69.44
2023-03-18T00:36:14.014Z,69.34
2023-03-18T00:41:17.330Z,70.28
2023-03-18T00:46:29.552Z,70.71
2023-03-18T00:51:35.697Z,70.67
2023-03-18T00:56:39.878Z,71.41
2023-03-18T01:01:43.424Z,71.28
2023-03-18T01:06:46.740Z,71.04
2023-03-18T01:11:50.066Z,70.61
2023-03-18T01:16:53.482Z,71.21
2023-03-18T01:21:57.466Z,70.84
2023-03-18T01:27:01.362Z,70.82
2023-03-18T01:32:05.396Z,70.61
2023-03-18T01:37:08.840Z,70.69
2023-03-18T01:42:14.845Z,71.73
2023-03-18T01:47:18.817Z,72.59
2023-03-18T01:52:31.366Z,72.60
2023-03-18T01:57:36.074Z,73.02
2023-03-18T02:02:41.081Z,73.36
2023-03-18T02:07:44.480Z,73.23
2023-03-18T02:13:00.802Z,73.08
2023-03-18T02:18:13.486Z,73.35
2023-03-18T02:23:43.100Z,72.73
2023-03-18T02:28:47.505Z,72.81
2023-03-18T02:33:51.476Z,71.79
2023-03-18T02:38:56.607Z,72.05
2023-03-18T02:44:01.896Z,72.60
2023-03-18T02:49:09.404Z,72.85
2023-03-18T02:54:16.515Z,72.64
2023-03-18T02:59:21.748Z,73.77
2023-03-18T03:04:26.477Z,75.50
2023-03-18T03:09:31.269Z,75.10
2023-03-18T03:14:34.580Z,74.78
2023-03-18T03:19:39.064Z,74.48
2023-03-18T03:24:42.308Z,74.78
2023-03-18T03:29:45.775Z,74.58
2023-03-18T03:34:50.577Z,75.50
2023-03-18T03:39:54.320Z,75.45
2023-03-18T03:44:57.494Z,74.76
2023-03-18T03:50:02.345Z,74.53
2023-03-18T03:55:11.108Z,74.12
2023-03-18T04:00:18.807Z,74.48
2023-03-18T04:05:24.803Z,75.25
2023-03-18T04:10:28.743Z,76.36
2023-03-18T04:15:32.068Z,76.76
2023-03-18T04:20:39.793Z,77.15
2023-03-18T04:25:50.734Z,77.19
2023-03-18T04:30:54.028Z,76.39
2023-03-18T04:35:58.306Z,76.59
2023-03-18T04:41:02.096Z,76.08
2023-03-18T04:46:05.612Z,76.99
2023-03-18T04:51:10.055Z,77.04
2023-03-18T04:56:13.945Z,76.95
2023-03-18T05:01:26.254Z,77.07
2023-03-18T05:06:31.938Z,76.36
2023-03-18T05:11:40.372Z,75.00
2023-03-18T05:17:15.832Z,75.74
2023-03-18T05:22:22.274Z,74.17
2023-03-18T05:27:30.129Z,73.83
2023-03-18T05:32:41.056Z,73.91
2023-03-18T05:37:44.695Z,73.12
2023-03-18T05:42:55.948Z,71.51
2023-03-18T05:48:07.072Z,70.12
2023-03-18T05:53:16.948Z,70.83
2023-03-18T05:58:21.280Z,70.29
2023-03-18T06:03:27.734Z,69.64
2023-03-18T06:08:31.998Z,67.69
2023-03-18T06:13:37.733Z,66.83
2023-03-18T06:18:41.793Z,66.45
2023-03-18T06:23:45.413Z,64.95
2023-03-18T06:28:49.101Z,64.66
2023-03-18T06:33:53.590Z,64.27
2023-03-18T06:38:57.929Z,62.33
2023-03-18T06:44:02.074Z,62.53
2023-03-18T06:49:06.798Z,61.20
2023-03-18T06:54:12.673Z,60.31
2023-03-18T06:59:15.874Z,58.49
2023-03-18T07:04:19.422Z,57.79
2023-03-18T07:09:23.742Z,55.29
2023-03-18T07:14:29.565Z,52.58
2023-03-18T07:19:33.752Z,51.55
2023-03-18T07:24:37.769Z,50.74
2023-03-18T07:29:41.358Z,48.23
2023-03-18T07:34:44.788Z,47.11
2023-03-18T07:39:48.830Z,48.80
2023-03-18T07:44:52.540Z,47.37
2023-03-18T07:49:55.748Z,47.08
2023-03-18T07:54:59.017Z,47.25
2023-03-18T08:00:02.342Z,46.07
2023-03-18T08:05:16.295Z,45.84
2023-03-18T08:10:20.391Z,44.81
2023-03-18T08:15:24.391Z,44.32
2023-03-18T08:20:27.680Z,42.24
2023-03-18T08:25:31.218Z,42.59
2023-03-18T08:30:36.026Z,41.15
2023-03-18T08:35:41.904Z,40.65
2023-03-18T08:40:46.605Z,40.79
2023-03-18T08:45:54.178Z,38.19
2023-03-18T08:50:58.534Z,39.32
2023-03-18T08:56:03.412Z,39.17
2023-03-18T09:01:06.741Z,36.75
2023-03-18T09:06:10.040Z,36.05
2023-03-18T09:11:14.085Z,37.26
2023-03-18T09:16:18.543Z,33.73
2023-03-18T09:21:22.778Z,33.24
2023-03-18T09:26:26.081Z,34.48
2023-03-18T09:31:29.384Z,34.19
2023-03-18T09:36:32.678Z,33.42
2023-03-18T09:41:50.546Z,34.08
2023-03-18T09:47:02.372Z,34.72
2023-03-18T09:52:28.940Z,33.98
2023-03-18T09:57:42.648Z,33.32
2023-03-18T10:02:51.833Z,34.39
2023-03-18T10:07:58.768Z,33.58
2023-03-18T10:13:13.462Z,34.61
2023-03-18T10:18:26.827Z,34.78
2023-03-18T10:23:50.372Z,34.77
2023-03-18T10:29:38.646Z,33.36
2023-03-18T10:34:56.203Z,32.45
2023-03-18T10:40:00.246Z,31.89
2023-03-18T10:45:09.847Z,32.55
2023-03-18T10:50:28.840Z,31.05
2023-03-18T10:55:40.324Z,31.86
2023-03-18T11:00:45.126Z,31.86
2023-03-18T11:05:50.631Z,30.62
2023-03-18T11:10:53.851Z,31.45
2023-03-18T11:15:57.189Z,30.87
2023-03-18T11:21:01.544Z,31.17
2023-03-18T11:26:08.934Z,31.20
2023-03-18T11:31:18.608Z,30.27
2023-03-18T11:36:24.310Z,31.17
2023-03-18T11:41:30.351Z,31.81
2023-03-18T11:46:46.193Z,30.90
2023-03-18T11:52:31.274Z,31.06
2023-03-18T11:58:14.818Z,32.24
2023-03-18T12:03:21.278Z,31.60
2023-03-18T12:08:39.660Z,31.35
2023-03-18T12:14:01.272Z,31.06
2023-03-18T12:19:19.828Z,30.86
2023-03-18T12:24:59.111Z,30.74
2023-03-18T12:30:19.756Z,30.46
2023-03-18T12:35:26.438Z,29.34
2023-03-18T12:41:01.145Z,29.25
2023-03-18T12:46:24.821Z,29.55
2023-03-18T12:51:33.374Z,28.99
2023-03-18T12:56:41.313Z,28.62
2023-03-18T13:02:16.310Z,27.66
2023-03-18T13:07:26.638Z,27.57
2023-03-18T13:12:33.734Z,27.93
2023-03-18T13:17:40.338Z,27.60
2023-03-18T13:22:43.586Z,27.82
2023-03-18T13:28:00.382Z,27.30
2023-03-18T13:33:14.755Z,27.12
2023-03-18T13:38:39.210Z,27.10
2023-03-18T13:43:46.632Z,27.73
2023-03-18T13:48:59.058Z,27.85
2023-03-18T13:54:07.805Z,27.76
2023-03-18T13:59:35.587Z,27.93
2023-03-18T14:04:49.861Z,27.41
2023-03-18T14:09:57.136Z,27.74
2023-03-18T14:15:10.507Z,28.00
2023-03-18T14:20:23.113Z,27.66
2023-03-18T14:25:43.948Z,28.03
2023-03-18T14:30:50.850Z,28.12
2023-03-18T14:36:10.465Z,27.88
2023-03-18T14:41:36.253Z,27.73
2023-03-18T14:46:43.204Z,27.61
2023-03-18T14:51:47.321Z,27.88
2023-03-18T14:56:55.454Z,27.46
2023-03-18T15:01:58.829Z,27.49
2023-03-18T15:07:05.766Z,27.89
2023-03-18T15:12:24.469Z,27.73
2023-03-18T15:17:27.766Z,28.17
2023-03-18T15:22:32.986Z,28.39
2023-03-18T15:27:36.741Z,28.07
2023-03-18T15:32:46.380Z,27.95
2023-03-18T15:38:05.953Z,28.90
2023-03-18T15:43:09.027Z,29.35
2023-03-18T15:48:23.913Z,29.30
2023-03-18T15:53:48.003Z,29.76
2023-03-18T15:59:11.659Z,30.50
2023-03-18T16:04:18.983Z,30.90
2023-03-18T16:09:26.218Z,31.02
2023-03-18T16:14:37.981Z,31.68
2023-03-18T16:19:59.879Z,31.67
2023-03-18T16:25:09.595Z,32.41
2023-03-18T16:30:30.805Z,32.08
2023-03-18T16:35:34.701Z,32.17
2023-03-18T16:40:38.469Z,32.59
2023-03-18T16:45:42.384Z,32.25
2023-03-18T16:50:50.242Z,32.74
2023-03-18T16:56:21.698Z,33.14
2023-03-18T17:01:28.361Z,35.77
2023-03-18T17:06:32.041Z,37.11
2023-03-18T17:11:35.815Z,37.77
2023-03-18T17:16:39.538Z,39.96
2023-03-18T17:21:45.721Z,42.22
2023-03-18T17:26:52.894Z,42.56
2023-03-18T17:31:56.800Z,43.31
2023-03-18T17:37:02.387Z,43.38
2023-03-18T17:42:06.776Z,43.27
2023-03-18T17:47:10.799Z,43.84
2023-03-18T17:52:37.072Z,44.32
2023-03-18T17:57:40.372Z,45.53
2023-03-18T18:02:44.547Z,46.59
2023-03-18T18:07:49.175Z,47.90
2023-03-18T18:12:52.685Z,48.99
2023-03-18T18:18:00.208Z,49.31
2023-03-18T18:23:03.996Z,49.30
2023-03-18T18:28:21.653Z,49.94
2023-03-18T18:33:32.855Z,48.19
2023-03-18T18:38:36.782Z,49.13
2023-03-18T18:43:40.162Z,52.55
2023-03-18T18:48:47.079Z,51.65
2023-03-18T18:53:52.805Z,51.79
2023-03-18T18:58:57.051Z,52.41
2023-03-18T19:04:03.015Z,53.08
2023-03-18T19:09:25.121Z,53.31
2023-03-18T19:14:29.702Z,52.64
2023-03-18T19:19:43.202Z,52.87
2023-03-18T19:24:48.762Z,53.79
2023-03-18T19:29:54.406Z,53.95
2023-03-18T19:34:57.839Z,54.84
2023-03-18T19:40:04.689Z,55.18
2023-03-18T19:45:13.433Z,55.59
2023-03-18T19:50:19.775Z,56.09
2023-03-18T19:55:24.196Z,54.08
2023-03-18T20:00:28.139Z,54.57
2023-03-18T20:05:32.002Z,56.87
2023-03-18T20:10:35.699Z,57.06
2023-03-18T20:15:39.111Z,55.39
2023-03-18T20:20:45.605Z,54.91
2023-03-18T20:25:51.641Z,55.71
2023-03-18T20:31:20.420Z,55.38
2023-03-18T20:36:47.017Z,55.72
2023-03-18T20:47:39.083Z,51.80
2023-03-18T20:53:00.443Z,50.06
2023-03-18T20:58:32.517Z,51.57
2023-03-18T21:03:48.705Z,52.88
2023-03-18T21:09:01.100Z,52.97
2023-03-18T21:14:04.815Z,54.92
2023-03-18T21:19:40.736Z,57.05
2023-03-18T21:24:43.957Z,57.49
2023-03-18T21:30:03.238Z,58.21
2023-03-18T21:35:22.304Z,59.17
2023-03-18T21:40:26.397Z,58.30
2023-03-18T21:45:29.591Z,58.68
2023-03-18T21:50:32.913Z,59.74
2023-03-18T21:55:36.549Z,59.84
2023-03-18T22:00:39.768Z,61.65
2023-03-18T22:05:44.334Z,62.21
2023-03-18T22:10:50.687Z,62.00
2023-03-18T22:15:56.061Z,63.45
2023-03-18T22:20:59.698Z,62.20
2023-03-18T22:26:03.932Z,61.63
2023-03-18T22:31:17.904Z,62.62
2023-03-18T22:36:25.878Z,62.19
2023-03-18T22:41:32.162Z,64.67
2023-03-18T22:46:35.580Z,64.42
2023-03-18T22:51:42.039Z,63.93
2023-03-18T22:56:45.368Z,63.51
2023-03-18T23:01:49.884Z,63.28
2023-03-18T23:06:53.781Z,61.72
2023-03-18T23:11:57.365Z,61.94
2023-03-18T23:17:00.637Z,63.06
2023-03-18T23:22:05.050Z,62.79
2023-03-18T23:27:08.413Z,61.79
2023-03-18T23:32:12.118Z,61.84
2023-03-18T23:37:16.313Z,61.49
2023-03-18T23:42:21.273Z,60.52
2023-03-18T23:47:24.650Z,56.02
2023-03-18T23:52:27.839Z,56.93
2023-03-18T23:57:31.172Z,57.46
